首页
METAR-TAF:

METAR-TAF

机场 :

澤西島,

纬度: 49-13N, 经度: 002-12W, 海拔: 84米

当前天气观测

该预报发布于15分钟前的08:50 UTC
风速22节,风向,有时为32节阵风
温度 17°C
湿度 94%
气压 1022 hPa
能見度: 8000
少量云层高于600英尺
多云层高于700英尺

METAR: EGJJ 270850Z 08022G32KT 8000 FEW006 BKN007 17/16 Q1022

时间: 10:05 (09:05 UTC)

预报

该预报发布于1小时和1分钟前的08:04 UTC
预报有效从27日的 09点(UTC)到 27日的 18点(UTC)
风速21节,风向东转东北
能見度: 6000
多云层高于500英尺
短暂存在
从 27日的 09点(UTC)到 27日的 18点(UTC)
风速26节,风向东转东北,有时为38节阵风
成为
从 27日的 09点(UTC)到 27日的 11点(UTC)
能见度10公里或以上
少量云层高于800英尺

TAF: EGJJ 270804Z 2709/2718 06021KT 6000 BKN005 TEMPO 2709/2718 07026G38KT BECMG 2709/2711 9999 FEW008

超过4000个机场的气象观测和天气预报(METAR&TAF报告)。

可查询的气象台以黄色和红色小点在地图上表示。

将鼠标移到小点上方,可查看气象台名称。

然后点击查看天气观测和预报。

如需切换地图:点击带黑十字的绿色按钮放大地图;点击带横线的绿色按钮缩小地图;或者点击绿色箭头查看邻近地区的地图。


METAR-TAF: